createdAt,value
2022-10-20T00:00:23.150Z,100.00
2022-10-20T00:02:53.456Z,100.00
2022-10-20T00:05:23.824Z,100.00
2022-10-20T00:07:54.188Z,100.00
2022-10-20T00:10:24.556Z,100.00
2022-10-20T00:12:55.026Z,100.00
2022-10-20T00:15:25.402Z,100.00
2022-10-20T00:17:55.800Z,100.00
2022-10-20T00:20:26.599Z,100.00
2022-10-20T00:22:56.839Z,100.00
2022-10-20T00:25:27.209Z,100.00
2022-10-20T00:27:57.595Z,100.00
2022-10-20T00:30:27.945Z,100.00
2022-10-20T00:32:58.277Z,100.00
2022-10-20T00:35:28.671Z,100.00
2022-10-20T00:37:59.033Z,100.00
2022-10-20T00:40:29.267Z,100.00
2022-10-20T00:42:59.650Z,100.00
2022-10-20T00:45:30.042Z,100.00
2022-10-20T00:48:06.643Z,100.00
2022-10-20T00:50:43.483Z,100.00
2022-10-20T00:53:14.135Z,100.00
2022-10-20T00:55:47.670Z,100.00
2022-10-20T00:58:18.640Z,100.00
2022-10-20T01:00:52.400Z,100.00
2022-10-20T01:03:28.951Z,100.00
2022-10-20T01:05:59.250Z,100.00
2022-10-20T01:08:29.642Z,100.00
2022-10-20T01:11:13.732Z,100.00
2022-10-20T01:13:58.667Z,100.00
2022-10-20T01:16:40.372Z,100.00
2022-10-20T01:19:43.455Z,100.00
2022-10-20T01:22:33.074Z,100.00
2022-10-20T01:25:15.419Z,100.00
2022-10-20T01:27:47.867Z,100.00
2022-10-20T01:30:21.137Z,100.00
2022-10-20T01:33:03.571Z,100.00
2022-10-20T01:35:42.760Z,100.00
2022-10-20T01:38:27.767Z,100.00
2022-10-20T01:41:03.637Z,100.00
2022-10-20T01:43:38.696Z,100.00
2022-10-20T01:46:11.697Z,100.00
2022-10-20T01:48:42.630Z,100.00
2022-10-20T01:51:13.215Z,100.00
2022-10-20T01:53:43.589Z,100.00
2022-10-20T01:56:21.074Z,100.00
2022-10-20T01:59:20.049Z,100.00
2022-10-20T02:02:07.784Z,100.00
2022-10-20T02:04:51.624Z,100.00
2022-10-20T02:07:28.954Z,100.00
2022-10-20T02:10:06.606Z,100.00
2022-10-20T02:12:41.850Z,100.00
2022-10-20T02:15:18.199Z,100.00
2022-10-20T02:17:54.338Z,100.00
2022-10-20T02:20:25.753Z,100.00
2022-10-20T02:22:55.468Z,100.00
2022-10-20T02:25:26.749Z,100.00
2022-10-20T02:30:32.346Z,100.00
2022-10-20T02:33:03.493Z,100.00
2022-10-20T02:35:34.906Z,100.00
2022-10-20T02:38:03.750Z,100.00
2022-10-20T02:40:34.045Z,100.00
2022-10-20T02:43:04.317Z,100.00
2022-10-20T02:45:34.586Z,100.00
2022-10-20T02:48:07.608Z,100.00
2022-10-20T02:50:38.940Z,100.00
2022-10-20T02:53:09.272Z,100.00
2022-10-20T02:55:39.532Z,100.00
2022-10-20T02:58:09.959Z,100.00
2022-10-20T03:00:40.235Z,100.00
2022-10-20T03:03:10.570Z,100.00
2022-10-20T03:05:44.434Z,100.00
2022-10-20T03:08:15.526Z,100.00
2022-10-20T03:10:46.010Z,100.00
2022-10-20T03:13:16.493Z,100.00
2022-10-20T03:15:46.985Z,100.00
2022-10-20T03:18:17.389Z,100.00
2022-10-20T03:20:47.823Z,100.00
2022-10-20T03:23:20.101Z,100.00
2022-10-20T03:25:50.763Z,100.00
2022-10-20T03:28:21.054Z,100.00
2022-10-20T03:30:51.433Z,100.00
2022-10-20T03:33:21.693Z,100.00
2022-10-20T03:35:51.981Z,100.00
2022-10-20T03:38:22.422Z,100.00
2022-10-20T03:40:52.805Z,100.00
2022-10-20T03:43:23.184Z,100.00
2022-10-20T03:46:02.045Z,100.00
2022-10-20T03:48:32.584Z,100.00
2022-10-20T03:51:04.061Z,100.00
2022-10-20T03:53:34.545Z,100.00
2022-10-20T03:56:09.600Z,100.00
2022-10-20T03:58:39.898Z,100.00
2022-10-20T04:01:14.392Z,100.00
2022-10-20T04:03:45.234Z,100.00
2022-10-20T04:06:16.803Z,100.00
2022-10-20T04:08:47.197Z,100.00
2022-10-20T04:11:17.630Z,100.00
2022-10-20T04:13:48.152Z,100.00
2022-10-20T04:16:18.473Z,100.00
2022-10-20T04:18:48.839Z,100.00
2022-10-20T04:21:19.080Z,100.00
2022-10-20T04:23:49.394Z,100.00
2022-10-20T04:26:19.723Z,100.00
2022-10-20T04:28:49.986Z,100.00
2022-10-20T04:31:20.372Z,100.00
2022-10-20T04:33:50.716Z,100.00
2022-10-20T04:36:21.029Z,99.96
2022-10-20T04:38:51.307Z,99.96
2022-10-20T04:41:21.548Z,100.00
2022-10-20T04:43:53.778Z,99.98
2022-10-20T04:46:24.369Z,100.00
2022-10-20T04:48:55.091Z,99.97
2022-10-20T04:51:25.447Z,99.83
2022-10-20T04:53:56.135Z,99.74
2022-10-20T04:56:26.755Z,99.10
2022-10-20T04:58:58.925Z,98.19
2022-10-20T05:01:30.871Z,97.85
2022-10-20T05:04:01.194Z,97.31
2022-10-20T05:06:33.482Z,96.81
2022-10-20T05:09:06.531Z,96.64
2022-10-20T05:11:38.574Z,96.53
2022-10-20T05:14:08.932Z,95.75
2022-10-20T05:16:39.235Z,96.22
2022-10-20T05:19:10.589Z,95.90
2022-10-20T05:21:39.652Z,96.03
2022-10-20T05:24:16.814Z,95.93
2022-10-20T05:26:50.552Z,96.30
2022-10-20T05:29:20.987Z,95.87
2022-10-20T05:31:51.361Z,95.85
2022-10-20T05:34:22.995Z,95.66
2022-10-20T05:36:54.934Z,95.85
2022-10-20T05:39:25.379Z,95.92
2022-10-20T05:41:55.835Z,96.01
2022-10-20T05:44:26.355Z,96.14
2022-10-20T05:46:56.691Z,96.01
2022-10-20T05:49:27.022Z,96.02
2022-10-20T05:51:57.374Z,96.34
2022-10-20T05:54:27.813Z,96.50
2022-10-20T05:56:58.054Z,96.57
2022-10-20T05:59:28.639Z,96.59
2022-10-20T06:01:59.029Z,96.91
2022-10-20T06:04:29.370Z,96.95
2022-10-20T06:07:00.047Z,97.11
2022-10-20T06:09:30.451Z,97.13
2022-10-20T06:12:00.969Z,97.20
2022-10-20T06:14:31.519Z,97.26
2022-10-20T06:17:01.853Z,97.50
2022-10-20T06:19:32.414Z,97.71
2022-10-20T06:22:05.865Z,97.91
2022-10-20T06:24:40.040Z,98.09
2022-10-20T06:27:10.343Z,98.38
2022-10-20T06:29:40.750Z,98.44
2022-10-20T06:32:11.224Z,98.83
2022-10-20T06:34:41.880Z,98.96
2022-10-20T06:37:13.122Z,99.14
2022-10-20T06:39:43.725Z,99.45
2022-10-20T06:42:13.982Z,99.51
2022-10-20T06:44:48.917Z,99.66
2022-10-20T06:47:19.232Z,99.65
2022-10-20T06:49:50.605Z,99.75
2022-10-20T06:52:19.379Z,99.94
2022-10-20T06:54:49.737Z,99.99
2022-10-20T06:57:20.315Z,99.99
2022-10-20T06:59:51.330Z,100.00
2022-10-20T07:02:21.814Z,100.00
2022-10-20T07:04:53.285Z,100.00
2022-10-20T07:07:23.721Z,100.00
2022-10-20T07:09:54.009Z,100.00
2022-10-20T07:12:24.349Z,99.95
2022-10-20T07:14:54.734Z,100.00
2022-10-20T07:17:25.153Z,100.00
2022-10-20T07:19:55.596Z,100.00
2022-10-20T07:22:25.948Z,100.00
2022-10-20T07:24:56.395Z,100.00
2022-10-20T07:27:27.706Z,99.98
2022-10-20T07:29:56.503Z,99.99
2022-10-20T07:32:26.909Z,100.00
2022-10-20T07:34:57.790Z,100.00
2022-10-20T07:37:28.225Z,100.00
2022-10-20T07:39:58.679Z,99.81
2022-10-20T07:42:29.746Z,99.58
2022-10-20T07:45:00.251Z,99.18
2022-10-20T07:47:33.174Z,99.18
2022-10-20T07:50:06.283Z,99.30
2022-10-20T07:52:36.850Z,99.48
2022-10-20T07:55:25.419Z,98.80
2022-10-20T07:57:59.331Z,98.59
2022-10-20T08:00:29.850Z,98.73
2022-10-20T08:03:00.310Z,98.61
2022-10-20T08:05:30.915Z,98.41
2022-10-20T08:08:01.630Z,97.55
2022-10-20T08:10:31.922Z,97.82
2022-10-20T08:13:02.396Z,97.42
2022-10-20T08:15:38.604Z,96.87
2022-10-20T08:18:09.019Z,96.50
2022-10-20T08:20:40.964Z,96.27
2022-10-20T08:23:12.867Z,95.56
2022-10-20T08:25:43.463Z,95.57
2022-10-20T08:28:13.769Z,95.53
2022-10-20T08:30:44.143Z,94.93
2022-10-20T08:33:14.475Z,94.66
2022-10-20T08:35:44.838Z,94.41
2022-10-20T08:38:15.176Z,93.52
2022-10-20T08:40:46.075Z,93.73
2022-10-20T08:43:21.287Z,93.46
2022-10-20T08:45:51.669Z,93.00
2022-10-20T08:48:25.124Z,92.69
2022-10-20T08:50:57.844Z,92.87
2022-10-20T08:53:40.059Z,93.50
2022-10-20T08:56:14.048Z,93.11
2022-10-20T08:58:46.446Z,92.64
2022-10-20T09:01:23.727Z,92.89
2022-10-20T09:03:58.627Z,92.73
2022-10-20T09:06:28.984Z,91.61
2022-10-20T09:08:59.823Z,91.83
2022-10-20T09:11:37.909Z,91.72
2022-10-20T09:14:11.934Z,90.88
2022-10-20T09:16:59.073Z,90.46
2022-10-20T09:19:30.994Z,89.75
2022-10-20T09:22:03.548Z,88.44
2022-10-20T09:24:36.252Z,88.69
2022-10-20T09:27:23.950Z,88.01
2022-10-20T09:29:54.393Z,88.45
2022-10-20T09:32:51.891Z,88.84
2022-10-20T09:35:28.637Z,88.22
2022-10-20T09:38:05.948Z,88.24
2022-10-20T09:40:36.828Z,87.83
2022-10-20T09:43:16.446Z,88.06
2022-10-20T09:45:54.698Z,87.36
2022-10-20T09:48:29.423Z,87.60
2022-10-20T09:51:01.730Z,86.75
2022-10-20T09:53:37.070Z,87.40
2022-10-20T09:56:08.578Z,86.93
2022-10-20T09:58:42.163Z,87.86
2022-10-20T10:01:18.178Z,88.25
2022-10-20T10:03:51.667Z,87.72
2022-10-20T10:06:43.167Z,87.16
2022-10-20T10:09:26.348Z,87.17
2022-10-20T10:12:02.268Z,86.72
2022-10-20T10:14:34.523Z,86.46
2022-10-20T10:17:05.259Z,86.61
2022-10-20T10:19:38.700Z,86.49
2022-10-20T10:22:13.497Z,86.00
2022-10-20T10:24:47.578Z,84.77
2022-10-20T10:27:27.082Z,85.27
2022-10-20T10:30:18.146Z,85.13
2022-10-20T10:32:49.383Z,85.55
2022-10-20T10:35:22.819Z,85.26
2022-10-20T10:37:55.045Z,85.20
2022-10-20T10:40:33.681Z,85.34
2022-10-20T10:43:30.571Z,84.73
2022-10-20T10:46:07.005Z,84.44
2022-10-20T10:48:56.674Z,84.02
2022-10-20T10:51:42.739Z,82.30
2022-10-20T10:54:39.280Z,82.65
2022-10-20T10:57:17.134Z,82.38
2022-10-20T10:59:50.641Z,81.80
2022-10-20T11:02:56.913Z,81.55
2022-10-20T11:05:58.709Z,82.03
2022-10-20T11:08:50.271Z,79.72
2022-10-20T11:11:35.305Z,79.34
2022-10-20T11:14:20.818Z,77.25
2022-10-20T11:17:02.846Z,77.71
2022-10-20T11:20:03.359Z,75.26
2022-10-20T11:22:47.197Z,75.76
2022-10-20T11:25:28.929Z,75.85
2022-10-20T11:27:59.503Z,75.83
2022-10-20T11:30:31.617Z,76.95
2022-10-20T11:33:09.012Z,77.36
2022-10-20T11:35:46.414Z,78.15
2022-10-20T11:38:24.951Z,78.59
2022-10-20T11:41:01.315Z,79.68
2022-10-20T11:43:35.390Z,79.79
2022-10-20T11:46:10.769Z,80.61
2022-10-20T11:48:48.381Z,80.27
2022-10-20T11:51:58.797Z,80.04
2022-10-20T11:54:42.381Z,80.76
2022-10-20T11:57:21.811Z,81.47
2022-10-20T12:00:12.000Z,81.34
2022-10-20T12:03:24.649Z,82.36
2022-10-20T12:06:26.205Z,83.67
2022-10-20T12:09:12.620Z,83.24
2022-10-20T12:11:52.664Z,84.47
2022-10-20T12:14:28.917Z,85.01
2022-10-20T12:17:16.410Z,85.33
2022-10-20T12:19:50.069Z,85.45
2022-10-20T12:22:44.361Z,85.96
2022-10-20T12:25:38.084Z,85.87
2022-10-20T12:28:41.735Z,85.71
2022-10-20T12:31:12.200Z,86.17
2022-10-20T12:34:03.826Z,86.80
2022-10-20T12:36:40.577Z,87.69
2022-10-20T12:39:17.959Z,87.83
2022-10-20T12:42:00.125Z,87.66
2022-10-20T12:44:33.306Z,88.43
2022-10-20T12:47:08.635Z,88.69
2022-10-20T12:49:45.198Z,88.74
2022-10-20T12:52:23.486Z,89.93
2022-10-20T12:55:03.486Z,90.52
2022-10-20T12:57:41.588Z,90.67
2022-10-20T13:00:52.278Z,91.50
2022-10-20T13:03:44.157Z,91.81
2022-10-20T13:06:42.191Z,91.76
2022-10-20T13:09:32.163Z,91.48
2022-10-20T13:12:06.059Z,91.69
2022-10-20T13:15:03.362Z,92.00
2022-10-20T13:17:49.623Z,92.32
2022-10-20T13:20:32.810Z,92.87
2022-10-20T13:23:03.521Z,93.59
2022-10-20T13:25:40.885Z,94.14
2022-10-20T13:28:20.113Z,94.65
2022-10-20T13:31:03.368Z,94.91
2022-10-20T13:34:03.208Z,94.61
2022-10-20T13:36:45.052Z,95.48
2022-10-20T13:39:21.565Z,95.55
2022-10-20T13:42:04.947Z,96.46
2022-10-20T13:44:50.250Z,96.37
2022-10-20T13:47:40.475Z,96.14
2022-10-20T13:50:14.860Z,96.37
2022-10-20T13:52:48.471Z,97.07
2022-10-20T13:55:22.740Z,97.88
2022-10-20T13:57:57.140Z,98.75
2022-10-20T14:00:30.047Z,99.38
2022-10-20T14:03:03.520Z,99.54
2022-10-20T14:05:40.270Z,99.72
2022-10-20T14:08:14.818Z,100.00
2022-10-20T14:10:53.224Z,100.00
2022-10-20T14:13:26.920Z,100.00
2022-10-20T14:15:59.964Z,99.98
2022-10-20T14:18:35.262Z,100.00
2022-10-20T14:21:08.890Z,100.00
2022-10-20T14:23:42.681Z,100.00
2022-10-20T14:26:17.971Z,100.00
2022-10-20T14:28:51.040Z,100.00
2022-10-20T14:31:24.574Z,100.00
2022-10-20T14:33:55.343Z,100.00
2022-10-20T14:39:04.199Z,100.00
2022-10-20T14:41:36.618Z,100.00
2022-10-20T14:44:18.353Z,100.00
2022-10-20T14:46:56.182Z,100.00
2022-10-20T14:49:30.349Z,100.00
2022-10-20T14:52:02.167Z,100.00
2022-10-20T14:54:39.463Z,100.00
2022-10-20T14:57:40.895Z,100.00
2022-10-20T15:00:33.991Z,100.00
2022-10-20T15:03:07.763Z,100.00
2022-10-20T15:05:44.382Z,100.00
2022-10-20T15:08:28.695Z,100.00
2022-10-20T15:11:02.444Z,100.00
2022-10-20T15:13:34.705Z,100.00
2022-10-20T15:16:05.590Z,100.00
2022-10-20T15:18:39.421Z,100.00
2022-10-20T15:21:11.974Z,100.00
2022-10-20T15:23:42.196Z,100.00
2022-10-20T15:26:16.014Z,100.00
2022-10-20T15:28:48.297Z,100.00
2022-10-20T15:31:23.930Z,100.00
2022-10-20T15:33:55.620Z,100.00
2022-10-20T15:36:29.308Z,100.00
2022-10-20T15:39:00.367Z,100.00
2022-10-20T15:41:32.102Z,100.00
2022-10-20T15:44:08.683Z,100.00
2022-10-20T15:46:39.105Z,100.00
2022-10-20T15:49:09.677Z,100.00
2022-10-20T15:51:42.421Z,100.00
2022-10-20T15:54:15.879Z,100.00
2022-10-20T15:56:46.997Z,100.00
2022-10-20T15:59:17.886Z,100.00
2022-10-20T16:01:48.458Z,100.00
2022-10-20T16:04:23.185Z,100.00
2022-10-20T16:06:57.600Z,100.00
2022-10-20T16:09:28.716Z,100.00
2022-10-20T16:11:59.246Z,100.00
2022-10-20T16:14:30.079Z,100.00
2022-10-20T16:17:00.767Z,100.00
2022-10-20T16:19:34.839Z,100.00
2022-10-20T16:22:05.812Z,100.00
2022-10-20T16:24:36.387Z,100.00
2022-10-20T16:27:06.854Z,100.00
2022-10-20T16:29:37.337Z,100.00
2022-10-20T16:32:08.036Z,100.00
2022-10-20T16:34:38.352Z,100.00
2022-10-20T16:37:08.724Z,100.00
2022-10-20T16:39:39.209Z,100.00
2022-10-20T16:42:09.644Z,100.00
2022-10-20T16:44:40.058Z,100.00
2022-10-20T16:47:11.363Z,100.00
2022-10-20T16:49:40.152Z,100.00
2022-10-20T16:52:10.548Z,100.00
2022-10-20T16:57:16.507Z,100.00
2022-10-20T16:59:50.027Z,100.00
2022-10-20T17:02:22.101Z,100.00
2022-10-20T17:04:52.570Z,100.00
2022-10-20T17:07:23.096Z,100.00
2022-10-20T17:09:53.890Z,100.00
2022-10-20T17:12:24.196Z,100.00
2022-10-20T17:14:54.470Z,100.00
2022-10-20T17:17:24.987Z,100.00
2022-10-20T17:19:55.378Z,100.00
2022-10-20T17:22:25.758Z,100.00
2022-10-20T17:24:56.231Z,100.00
2022-10-20T17:27:27.094Z,100.00
2022-10-20T17:29:57.949Z,100.00
2022-10-20T17:32:28.445Z,100.00
2022-10-20T17:34:58.978Z,100.00
2022-10-20T17:37:29.590Z,100.00
2022-10-20T17:39:59.984Z,100.00
2022-10-20T17:42:30.317Z,100.00
2022-10-20T17:45:01.091Z,100.00
2022-10-20T17:47:31.398Z,100.00
2022-10-20T17:50:02.224Z,100.00
2022-10-20T17:52:33.158Z,100.00
2022-10-20T17:55:03.740Z,100.00
2022-10-20T17:57:34.444Z,100.00
2022-10-20T18:00:11.026Z,100.00
2022-10-20T18:02:50.326Z,100.00
2022-10-20T18:05:23.601Z,100.00
2022-10-20T18:07:54.710Z,100.00
2022-10-20T18:10:25.447Z,100.00
2022-10-20T18:12:55.882Z,100.00
2022-10-20T18:15:26.731Z,100.00
2022-10-20T18:17:57.435Z,100.00
2022-10-20T18:20:32.176Z,100.00
2022-10-20T18:23:07.292Z,100.00
2022-10-20T18:25:38.748Z,100.00
2022-10-20T18:28:09.499Z,100.00
2022-10-20T18:30:40.945Z,100.00
2022-10-20T18:33:12.027Z,100.00
2022-10-20T18:35:43.914Z,100.00
2022-10-20T18:39:10.952Z,100.00
2022-10-20T18:41:43.407Z,100.00
2022-10-20T18:44:17.940Z,100.00
2022-10-20T18:46:49.779Z,100.00
2022-10-20T18:49:21.604Z,100.00
2022-10-20T18:51:52.621Z,100.00
2022-10-20T18:54:24.421Z,100.00
2022-10-20T18:56:55.348Z,100.00
2022-10-20T18:59:25.946Z,100.00
2022-10-20T19:01:56.524Z,100.00
2022-10-20T19:04:27.018Z,100.00
2022-10-20T19:06:57.978Z,100.00
2022-10-20T19:09:28.660Z,100.00
2022-10-20T19:12:00.697Z,100.00
2022-10-20T19:14:31.417Z,100.00
2022-10-20T19:17:01.822Z,100.00
2022-10-20T19:19:32.406Z,100.00
2022-10-20T19:22:04.274Z,100.00
2022-10-20T19:24:34.794Z,100.00
2022-10-20T19:27:25.696Z,100.00
2022-10-20T19:29:56.139Z,100.00
2022-10-20T19:32:26.806Z,100.00
2022-10-20T19:34:57.211Z,100.00
2022-10-20T19:37:27.775Z,100.00
2022-10-20T19:39:58.246Z,100.00
2022-10-20T19:42:28.709Z,100.00
2022-10-20T19:44:59.075Z,100.00
2022-10-20T19:47:29.499Z,100.00
2022-10-20T19:49:59.973Z,100.00
2022-10-20T19:52:30.493Z,100.00
2022-10-20T19:55:01.679Z,100.00
2022-10-20T19:57:32.339Z,100.00
2022-10-20T20:00:02.767Z,100.00
2022-10-20T20:02:35.697Z,100.00
2022-10-20T20:05:08.046Z,100.00
2022-10-20T20:07:38.812Z,100.00
2022-10-20T20:10:10.680Z,100.00
2022-10-20T20:12:41.258Z,100.00
2022-10-20T20:15:11.656Z,100.00
2022-10-20T20:17:42.224Z,100.00
2022-10-20T20:20:12.775Z,100.00
2022-10-20T20:22:43.405Z,100.00
2022-10-20T20:25:13.843Z,100.00
2022-10-20T20:27:44.211Z,100.00
2022-10-20T20:30:15.184Z,100.00
2022-10-20T20:32:47.718Z,100.00
2022-10-20T20:35:20.307Z,100.00
2022-10-20T20:37:50.670Z,100.00
2022-10-20T20:40:21.539Z,100.00
2022-10-20T20:42:52.170Z,100.00
2022-10-20T20:45:22.747Z,100.00
2022-10-20T20:47:53.274Z,100.00
2022-10-20T20:50:23.834Z,100.00
2022-10-20T20:52:54.185Z,100.00
2022-10-20T20:55:24.821Z,100.00
2022-10-20T20:57:55.436Z,100.00
2022-10-20T21:00:25.967Z,100.00
2022-10-20T21:02:56.453Z,100.00
2022-10-20T21:05:26.824Z,100.00
2022-10-20T21:07:57.295Z,100.00
2022-10-20T21:10:27.641Z,100.00
2022-10-20T21:12:58.161Z,100.00
2022-10-20T21:15:28.655Z,100.00
2022-10-20T21:17:58.994Z,100.00
2022-10-20T21:20:29.539Z,100.00
2022-10-20T21:23:00.012Z,100.00
2022-10-20T21:25:30.645Z,100.00
2022-10-20T21:28:00.993Z,100.00
2022-10-20T21:33:06.841Z,100.00
2022-10-20T21:35:37.386Z,100.00
2022-10-20T21:38:08.218Z,100.00
2022-10-20T21:40:39.243Z,100.00
2022-10-20T21:43:10.539Z,100.00
2022-10-20T21:45:40.930Z,100.00
2022-10-20T21:48:11.304Z,100.00
2022-10-20T21:50:41.653Z,100.00
2022-10-20T21:53:12.158Z,100.00
2022-10-20T21:55:42.498Z,100.00
2022-10-20T21:58:13.158Z,100.00
2022-10-20T22:00:43.632Z,100.00
2022-10-20T22:03:14.015Z,100.00
2022-10-20T22:05:44.369Z,100.00
2022-10-20T22:08:14.787Z,100.00
2022-10-20T22:10:45.306Z,100.00
2022-10-20T22:13:15.734Z,100.00
2022-10-20T22:15:46.065Z,100.00
2022-10-20T22:18:16.454Z,100.00
2022-10-20T22:20:47.594Z,100.00
2022-10-20T22:23:18.282Z,100.00
2022-10-20T22:25:51.872Z,100.00
2022-10-20T22:28:22.243Z,100.00
2022-10-20T22:30:52.750Z,100.00
2022-10-20T22:33:23.250Z,100.00
2022-10-20T22:35:53.626Z,100.00
2022-10-20T22:38:24.026Z,100.00
2022-10-20T22:40:58.381Z,100.00
2022-10-20T22:43:29.736Z,100.00
2022-10-20T22:45:58.959Z,100.00
2022-10-20T22:48:29.607Z,100.00
2022-10-20T22:50:59.925Z,100.00
2022-10-20T22:53:30.276Z,100.00
2022-10-20T22:56:07.659Z,100.00
2022-10-20T22:58:38.676Z,100.00
2022-10-20T23:01:10.786Z,100.00
2022-10-20T23:03:41.263Z,100.00
2022-10-20T23:06:14.164Z,100.00
2022-10-20T23:08:46.093Z,100.00
2022-10-20T23:11:17.831Z,100.00
2022-10-20T23:13:49.978Z,100.00
2022-10-20T23:16:21.011Z,100.00
2022-10-20T23:18:51.441Z,100.00
2022-10-20T23:21:21.919Z,100.00
2022-10-20T23:23:52.328Z,100.00
2022-10-20T23:26:22.714Z,100.00
2022-10-20T23:28:53.138Z,100.00
2022-10-20T23:31:24.398Z,100.00
2022-10-20T23:33:55.254Z,100.00
2022-10-20T23:36:26.586Z,100.00
2022-10-20T23:38:55.458Z,100.00
2022-10-20T23:41:25.897Z,100.00
2022-10-20T23:43:56.307Z,100.00
2022-10-20T23:46:31.585Z,100.00
2022-10-20T23:49:01.986Z,100.00
2022-10-20T23:51:32.535Z,100.00
2022-10-20T23:54:03.448Z,100.00
2022-10-20T23:56:33.980Z,100.00
2022-10-20T23:59:04.412Z,100.00
